createdAt,value
2023-11-25T08:30:02.718Z,50.875809
2023-11-25T08:31:02.713Z,50.875809
2023-11-25T08:32:02.893Z,50.875809
2023-11-25T08:33:02.715Z,50.875809
2023-11-25T08:34:02.664Z,50.875809
2023-11-25T08:35:02.665Z,50.875809
2023-11-25T08:36:02.649Z,50.875748
2023-11-25T08:37:02.674Z,50.875748
2023-11-25T08:38:02.629Z,50.875748
2023-11-25T08:39:02.680Z,50.875748
2023-11-25T08:40:02.624Z,50.875748
2023-11-25T08:41:02.734Z,50.875748
2023-11-25T08:42:02.575Z,50.875748
2023-11-25T08:43:02.618Z,50.875748
2023-11-25T08:44:02.612Z,50.875748
2023-11-25T08:45:02.555Z,50.875748
2023-11-25T08:46:02.613Z,50.875748
2023-11-25T08:47:03.621Z,50.875748
2023-11-25T08:48:02.582Z,50.875748
2023-11-25T08:49:02.521Z,50.875748
2023-11-25T08:50:02.631Z,50.875748
2023-11-25T08:51:04.173Z,50.875748
2023-11-25T08:52:02.548Z,50.875748
2023-11-25T08:53:02.524Z,50.875748
2023-11-25T08:54:02.592Z,50.875748
2023-11-25T08:55:02.499Z,50.875748
2023-11-25T08:56:02.569Z,50.875748
2023-11-25T08:57:02.528Z,50.875748
2023-11-25T08:58:02.416Z,50.875748
2023-11-25T08:59:06.645Z,50.875748
2023-11-25T09:00:03.469Z,50.875748
2023-11-25T09:01:02.428Z,50.875748
2023-11-25T09:02:02.405Z,50.875748
2023-11-25T09:03:02.482Z,50.875748
2023-11-25T09:04:02.442Z,50.875748
2023-11-25T09:05:09.275Z,50.875748
2023-11-25T09:06:04.371Z,50.875748
2023-11-25T09:07:02.372Z,50.875748
2023-11-25T09:08:02.507Z,50.875748
2023-11-25T09:09:02.361Z,50.875748
2023-11-25T09:10:02.355Z,50.875748
2023-11-25T09:11:02.437Z,50.875748
2023-11-25T09:12:02.307Z,50.875748
2023-11-25T09:13:02.269Z,50.875748
2023-11-25T09:14:02.339Z,50.875748
2023-11-25T09:15:02.265Z,50.875748
2023-11-25T09:16:02.300Z,50.875748
2023-11-25T09:17:02.275Z,50.875748
2023-11-25T09:18:02.284Z,50.875748
2023-11-25T09:19:02.204Z,50.875748
2023-11-25T09:20:02.322Z,50.875748
2023-11-25T09:21:02.210Z,50.875748
2023-11-25T09:22:02.194Z,50.875748
2023-11-25T09:23:02.189Z,50.875748
2023-11-25T09:24:02.178Z,50.875748
2023-11-25T09:25:02.136Z,50.875748
2023-11-25T09:26:02.150Z,50.875748
2023-11-25T09:27:02.159Z,50.876648
2023-11-25T09:28:02.113Z,50.876705
2023-11-25T09:29:02.176Z,50.873684
2023-11-25T09:30:02.109Z,50.875420
2023-11-25T09:31:02.081Z,50.875317
2023-11-25T09:32:02.118Z,50.875454
2023-11-25T09:33:02.142Z,50.875347
2023-11-25T09:34:02.128Z,50.875305
2023-11-25T09:35:02.068Z,50.875317
2023-11-25T09:36:02.041Z,50.875385
2023-11-25T09:37:02.073Z,50.875313
2023-11-25T09:38:02.118Z,50.875439
2023-11-25T09:39:02.010Z,50.875557
2023-11-25T09:40:01.988Z,50.875408
2023-11-25T09:41:02.069Z,50.875450
2023-11-25T09:42:01.982Z,50.875298
2023-11-25T09:43:01.948Z,50.875317
2023-11-25T09:44:01.953Z,50.875305
2023-11-25T09:45:01.944Z,50.875328
2023-11-25T09:46:02.010Z,50.875435
2023-11-25T09:47:02.007Z,50.875359
2023-11-25T09:48:01.931Z,50.875385
2023-11-25T09:49:01.901Z,50.875259
2023-11-25T09:50:01.919Z,50.875412
2023-11-25T09:51:01.894Z,50.875378
2023-11-25T09:52:01.958Z,50.875420
2023-11-25T09:53:02.604Z,50.876499
2023-11-25T09:54:01.902Z,50.876499
2023-11-25T09:55:01.956Z,50.876499
2023-11-25T09:56:01.909Z,50.876499
2023-11-25T09:57:01.836Z,50.876499
2023-11-25T09:58:01.827Z,50.876499
2023-11-25T09:59:01.819Z,50.876499
2023-11-25T10:00:01.815Z,50.876499
2023-11-25T10:01:01.799Z,50.876499
2023-11-25T10:02:01.859Z,50.876499
2023-11-25T10:03:01.915Z,50.876499
2023-11-25T10:04:01.793Z,50.876499
2023-11-25T10:05:01.761Z,50.876499
2023-11-25T10:06:01.766Z,50.876499
2023-11-25T10:07:01.737Z,50.876499
2023-11-25T10:08:01.732Z,50.876499
2023-11-25T10:09:01.701Z,50.876499
2023-11-25T10:10:01.672Z,50.876499
2023-11-25T10:11:01.694Z,50.876499
2023-11-25T10:12:01.652Z,50.876499
2023-11-25T10:13:01.705Z,50.876499
2023-11-25T10:14:01.675Z,50.876499
2023-11-25T10:15:01.679Z,50.876499
2023-11-25T10:16:01.769Z,50.876499
2023-11-25T10:17:01.708Z,50.876499
2023-11-25T10:18:01.634Z,50.876499
2023-11-25T10:19:01.733Z,50.876499
2023-11-25T10:20:01.610Z,50.876499
2023-11-25T10:21:01.620Z,50.876499
2023-11-25T10:22:01.561Z,50.876499
2023-11-25T10:23:01.588Z,50.876499
2023-11-25T10:24:01.573Z,50.876499
2023-11-25T10:25:01.572Z,50.876499
2023-11-25T10:26:01.499Z,50.876499
2023-11-25T10:27:01.533Z,50.876499
2023-11-25T10:28:01.563Z,50.876499
2023-11-25T10:29:01.529Z,50.876499
2023-11-25T10:30:01.516Z,50.876499
2023-11-25T10:31:01.475Z,50.876499
2023-11-25T10:32:01.448Z,50.876499
2023-11-25T10:33:01.502Z,50.876499
2023-11-25T10:34:01.528Z,50.876499
2023-11-25T10:35:01.477Z,50.876499
2023-11-25T10:36:01.433Z,50.876499
2023-11-25T10:37:01.482Z,50.876499
2023-11-25T10:38:01.561Z,50.876499
2023-11-25T10:39:01.440Z,50.876499
2023-11-25T10:40:01.466Z,50.876499
2023-11-25T10:41:01.435Z,50.876499
2023-11-25T10:42:01.364Z,50.876499
2023-11-25T10:43:01.381Z,50.876499
2023-11-25T10:44:01.401Z,50.876499
2023-11-25T10:45:01.324Z,50.876499
2023-11-25T10:46:01.397Z,50.876499
2023-11-25T10:47:01.401Z,50.876499
2023-11-25T10:48:01.387Z,50.876499
2023-11-25T10:49:01.301Z,50.876499
2023-11-25T10:50:01.321Z,50.876499
2023-11-25T10:51:01.287Z,50.876499
2023-11-25T10:52:01.268Z,50.876499
2023-11-25T10:53:01.343Z,50.876499
2023-11-25T10:54:01.265Z,50.876499
2023-11-25T10:55:01.259Z,50.876499
2023-11-25T10:56:01.573Z,50.876499
2023-11-25T10:57:01.258Z,50.876499
2023-11-25T10:58:01.239Z,50.876499
2023-11-25T10:59:01.330Z,50.876499
2023-11-25T11:00:01.204Z,50.876499
2023-11-25T11:01:01.303Z,50.876499
2023-11-25T11:02:01.389Z,50.876499
2023-11-25T11:03:01.225Z,50.876499
2023-11-25T11:04:01.183Z,50.876499
2023-11-25T11:05:01.139Z,50.872952
2023-11-25T11:06:01.144Z,50.874893
2023-11-25T11:07:01.747Z,50.875259
2023-11-25T11:08:01.125Z,50.875374
2023-11-25T11:09:01.109Z,50.875477
2023-11-25T11:10:01.102Z,50.875217
2023-11-25T11:11:01.159Z,50.875191
2023-11-25T11:12:01.091Z,50.875191
2023-11-25T11:13:01.063Z,50.875240
2023-11-25T11:14:01.070Z,50.875546
2023-11-25T11:15:01.039Z,50.875515
2023-11-25T11:16:01.042Z,50.875332
2023-11-25T11:17:01.042Z,50.875477
2023-11-25T11:18:01.102Z,50.875500
2023-11-25T11:19:01.109Z,50.874878
2023-11-25T11:20:01.051Z,50.875446
2023-11-25T11:21:01.041Z,50.875153
2023-11-25T11:22:00.979Z,50.875225
2023-11-25T11:23:00.977Z,50.875454
2023-11-25T11:24:00.961Z,50.875793
2023-11-25T11:25:00.989Z,50.875538
2023-11-25T11:26:00.989Z,50.875500
2023-11-25T11:27:00.937Z,50.875317
2023-11-25T11:28:00.922Z,50.875641
2023-11-25T11:29:00.915Z,50.875496
2023-11-25T11:30:00.917Z,50.875618
2023-11-25T11:31:00.890Z,50.875553
2023-11-25T11:32:01.068Z,50.875423
2023-11-25T11:33:00.924Z,50.875336
2023-11-25T11:34:00.866Z,50.875248
2023-11-25T11:35:00.915Z,50.875366
2023-11-25T11:36:00.870Z,50.875366
2023-11-25T11:37:00.829Z,50.875370
2023-11-25T11:38:00.863Z,50.875534
2023-11-25T11:39:00.860Z,50.875378
2023-11-25T11:40:00.799Z,50.875530
2023-11-25T11:41:00.887Z,50.875458
2023-11-25T11:42:00.792Z,50.875576
2023-11-25T11:43:00.808Z,50.875454
2023-11-25T11:44:00.818Z,50.875477
2023-11-25T11:45:00.833Z,50.875385
2023-11-25T11:46:00.768Z,50.875332
2023-11-25T11:47:00.769Z,50.875233
2023-11-25T11:48:00.773Z,50.875244
2023-11-25T11:49:00.739Z,50.875237
2023-11-25T11:50:00.836Z,50.874493
2023-11-25T11:51:00.699Z,50.874802
2023-11-25T11:52:00.681Z,50.875217
2023-11-25T11:53:00.928Z,50.875336
2023-11-25T11:54:00.679Z,50.875313
2023-11-25T11:55:00.655Z,50.875389
2023-11-25T11:56:00.721Z,50.875423
2023-11-25T11:57:00.665Z,50.875343
2023-11-25T11:58:00.638Z,50.875683
2023-11-25T11:59:00.698Z,50.875599
2023-11-25T12:00:00.585Z,50.875793
2023-11-25T12:01:00.580Z,50.875996
2023-11-25T12:02:00.605Z,50.875973
2023-11-25T12:03:00.621Z,50.875973
2023-11-25T12:04:00.617Z,50.875973
2023-11-25T12:05:00.907Z,50.875973
2023-11-25T12:06:00.535Z,50.875389
2023-11-25T12:07:00.550Z,50.875389
2023-11-25T12:08:00.556Z,50.875118
2023-11-25T12:09:00.535Z,50.874920
2023-11-25T12:10:00.578Z,50.875313
2023-11-25T12:11:00.531Z,50.875088
2023-11-25T12:12:00.517Z,50.875248
2023-11-25T12:13:00.504Z,50.874195
2023-11-25T12:14:00.534Z,50.874962
2023-11-25T12:15:00.454Z,50.875248
2023-11-25T12:16:00.877Z,50.875248
2023-11-25T12:17:00.521Z,50.875248
2023-11-25T12:18:01.465Z,50.873604
2023-11-25T12:19:00.403Z,50.872986
2023-11-25T12:20:00.503Z,50.872986
2023-11-25T12:21:00.420Z,50.872986
2023-11-25T12:22:00.419Z,50.872986
2023-11-25T12:23:00.393Z,50.872986
2023-11-25T12:24:00.373Z,50.872986
2023-11-25T12:25:00.331Z,50.872986
2023-11-25T12:26:00.371Z,50.872986
2023-11-25T12:27:00.340Z,50.872986
2023-11-25T12:28:00.313Z,50.872986
2023-11-25T12:29:00.332Z,50.872986
2023-11-25T12:30:00.316Z,50.872986
2023-11-25T12:31:00.296Z,50.872986
2023-11-25T12:32:00.381Z,50.872986
2023-11-25T12:33:00.301Z,50.872986
2023-11-25T12:34:00.253Z,50.872986
2023-11-25T12:35:00.340Z,50.872986
2023-11-25T12:36:00.256Z,50.872986
2023-11-25T12:37:00.220Z,50.872986
2023-11-25T12:38:08.081Z,50.872986
2023-11-25T12:39:02.207Z,50.872986
2023-11-25T12:40:00.226Z,50.872986
2023-11-25T12:41:01.204Z,50.872986
2023-11-25T12:42:00.199Z,50.872986
2023-11-25T12:43:00.151Z,50.872986
2023-11-25T12:44:00.237Z,50.872986
2023-11-25T12:45:00.198Z,50.872986
2023-11-25T12:46:00.206Z,50.872986
2023-11-25T12:47:00.311Z,50.872986
2023-11-25T12:48:00.150Z,50.872986
2023-11-25T12:49:05.993Z,50.872986
2023-11-25T12:50:01.171Z,50.872986
2023-11-25T12:51:00.118Z,50.872986
2023-11-25T12:52:00.110Z,50.872986
2023-11-25T12:53:00.105Z,50.872986
2023-11-25T12:54:00.065Z,50.872986
2023-11-25T12:55:00.018Z,50.872986
2023-11-25T12:56:00.115Z,50.872986
2023-11-25T12:56:59.988Z,50.872986
2023-11-25T12:58:00.024Z,50.872986
2023-11-25T12:59:00.073Z,50.872986
2023-11-25T12:59:59.998Z,50.872986
2023-11-25T13:01:00.008Z,50.872986
2023-11-25T13:02:00.047Z,50.872986
2023-11-25T13:03:00.199Z,50.872986
2023-11-25T13:04:00.008Z,50.872986
2023-11-25T13:05:00.050Z,50.872986
2023-11-25T13:05:59.952Z,50.872986
2023-11-25T13:06:59.928Z,50.872986
2023-11-25T13:08:00.081Z,50.872986
2023-11-25T13:08:59.922Z,50.872986
2023-11-25T13:10:00.101Z,50.872986
2023-11-25T13:10:59.897Z,50.872986
2023-11-25T13:11:59.969Z,50.872986
2023-11-25T13:13:09.967Z,50.872986
2023-11-25T13:15:24.517Z,50.872986
2023-11-25T13:15:26.056Z,50.872986
2023-11-25T13:16:27.999Z,50.872986
2023-11-25T13:17:26.454Z,50.872986
2023-11-25T13:18:26.166Z,50.872986
2023-11-25T13:19:26.038Z,50.872986
2023-11-25T13:20:26.181Z,50.872986
2023-11-25T13:21:26.016Z,50.872986
2023-11-25T13:22:26.098Z,50.872986
2023-11-25T13:23:26.068Z,50.872986
2023-11-25T13:24:25.964Z,50.872986
2023-11-25T13:25:25.986Z,50.872986
2023-11-25T13:26:25.994Z,50.872986
2023-11-25T13:27:26.040Z,50.872986
2023-11-25T13:28:25.948Z,50.872986
2023-11-25T13:29:25.894Z,50.872986
2023-11-25T13:30:25.889Z,50.872986
2023-11-25T13:31:27.789Z,50.872986
2023-11-25T13:32:25.982Z,50.872986
2023-11-25T13:33:25.933Z,50.872986
2023-11-25T13:34:25.842Z,50.872986
2023-11-25T13:35:26.822Z,50.872986
2023-11-25T13:36:25.826Z,50.872986
2023-11-25T13:37:25.868Z,50.872986
2023-11-25T13:38:25.806Z,50.872986
2023-11-25T13:39:25.863Z,50.872986
2023-11-25T13:40:26.641Z,50.872986
2023-11-25T13:41:25.826Z,50.872986
2023-11-25T13:42:25.796Z,50.872986
2023-11-25T13:43:25.839Z,50.872986
2023-11-25T13:44:25.797Z,50.872986
2023-11-25T13:45:25.780Z,50.872986
2023-11-25T13:46:25.823Z,50.872986
2023-11-25T13:47:25.848Z,50.872986
2023-11-25T13:48:25.792Z,50.872986
2023-11-25T13:49:25.740Z,50.872986
2023-11-25T13:50:25.750Z,50.872986
2023-11-25T13:51:25.720Z,50.872986
2023-11-25T13:52:25.785Z,50.872986
2023-11-25T13:53:25.709Z,50.872986
2023-11-25T13:54:25.697Z,50.872986
2023-11-25T13:55:25.727Z,50.872986
2023-11-25T13:56:25.654Z,50.872986
2023-11-25T13:57:25.667Z,50.872986
2023-11-25T13:58:25.646Z,50.872986
2023-11-25T13:59:25.685Z,50.872986
2023-11-25T14:00:27.733Z,50.872986
2023-11-25T14:01:26.658Z,50.872986
2023-11-25T14:02:25.666Z,50.872986
2023-11-25T14:03:25.711Z,50.872986
2023-11-25T14:04:25.647Z,50.872986
2023-11-25T14:05:25.578Z,50.872986
2023-11-25T14:06:25.560Z,50.872986
2023-11-25T14:07:25.608Z,50.872986
2023-11-25T14:08:25.534Z,50.872986
2023-11-25T14:09:25.581Z,50.872986
2023-11-25T14:10:25.525Z,50.872986
2023-11-25T14:11:25.525Z,50.872986
2023-11-25T14:12:25.529Z,50.872986
2023-11-25T14:13:25.527Z,50.872986
2023-11-25T14:14:25.525Z,50.872986
2023-11-25T14:15:25.475Z,50.872986
2023-11-25T14:16:25.478Z,50.872986
2023-11-25T14:17:25.649Z,50.872986
2023-11-25T14:18:25.516Z,50.872986
2023-11-25T14:19:25.496Z,50.872986
2023-11-25T14:20:25.475Z,50.872986
2023-11-25T14:21:25.423Z,50.872986
2023-11-25T14:22:25.414Z,50.872986
2023-11-25T14:23:25.471Z,50.872986
2023-11-25T14:24:25.434Z,50.872986
2023-11-25T14:25:25.403Z,50.872986
2023-11-25T14:26:25.421Z,50.872986
2023-11-25T14:27:25.399Z,50.872986
2023-11-25T14:28:25.372Z,50.872986
2023-11-25T14:29:25.370Z,50.872986
2023-11-25T14:30:25.353Z,50.872986
2023-11-25T14:31:25.347Z,50.872986
2023-11-25T14:32:25.333Z,50.872986
2023-11-25T14:33:25.363Z,50.872986
2023-11-25T14:34:25.313Z,50.872986
2023-11-25T14:35:25.297Z,50.872986
2023-11-25T14:36:25.276Z,50.872986
2023-11-25T14:37:25.277Z,50.872986
2023-11-25T14:38:25.286Z,50.872986
2023-11-25T14:39:25.244Z,50.872986
2023-11-25T14:40:26.402Z,50.872986
2023-11-25T14:41:25.277Z,50.872986
2023-11-25T14:42:25.238Z,50.872986
2023-11-25T14:43:25.280Z,50.872986
2023-11-25T14:44:25.208Z,50.872986
2023-11-25T14:45:25.215Z,50.872986
2023-11-25T14:46:25.214Z,50.872986
2023-11-25T14:47:25.299Z,50.872986
2023-11-25T14:48:25.272Z,50.872986
2023-11-25T14:49:25.140Z,50.872986
2023-11-25T14:50:25.131Z,50.872986
2023-11-25T14:51:25.150Z,50.872986
2023-11-25T14:52:26.138Z,50.872986
2023-11-25T14:53:25.157Z,50.872986
2023-11-25T14:54:25.091Z,50.872986
2023-11-25T14:55:25.091Z,50.872986
2023-11-25T14:56:25.131Z,50.872986
2023-11-25T14:57:25.073Z,50.872986
2023-11-25T14:58:25.075Z,50.872986
2023-11-25T14:59:25.053Z,50.872986
2023-11-25T15:00:25.071Z,50.872986
2023-11-25T15:01:25.029Z,50.872986
2023-11-25T15:02:25.083Z,50.872986
2023-11-25T15:03:25.069Z,50.872986
2023-11-25T15:04:25.026Z,50.872986
2023-11-25T15:05:25.034Z,50.872986
2023-11-25T15:06:24.954Z,50.872986
2023-11-25T15:07:24.970Z,50.872986
2023-11-25T15:08:24.976Z,50.872986
2023-11-25T15:09:24.985Z,50.872986
2023-11-25T15:10:24.980Z,50.872986
2023-11-25T15:11:24.939Z,50.872986
2023-11-25T15:12:24.926Z,50.872986
2023-11-25T15:13:24.894Z,50.872986
2023-11-25T15:14:24.898Z,50.872986
2023-11-25T15:15:24.887Z,50.872986
2023-11-25T15:16:24.884Z,50.872986
2023-11-25T15:17:24.888Z,50.872986
2023-11-25T15:18:24.940Z,50.872986
2023-11-25T15:19:24.865Z,50.872986
2023-11-25T15:20:24.855Z,50.872986
2023-11-25T15:21:24.844Z,50.872986
2023-11-25T15:22:24.845Z,50.872986
2023-11-25T15:23:24.810Z,50.872986
2023-11-25T15:24:24.821Z,50.872986
2023-11-25T15:25:24.784Z,50.872986
2023-11-25T15:26:24.842Z,50.872986
2023-11-25T15:27:24.761Z,50.872986
2023-11-25T15:28:24.756Z,50.872986
2023-11-25T15:29:25.744Z,50.872986
2023-11-25T15:30:24.740Z,50.872986
2023-11-25T15:31:24.749Z,50.872986
2023-11-25T15:32:24.806Z,50.872986
2023-11-25T15:33:24.819Z,50.872986
2023-11-25T15:34:24.698Z,50.872986
2023-11-25T15:35:24.686Z,50.872986
2023-11-25T15:36:24.660Z,50.872986
2023-11-25T15:37:24.674Z,50.872986
2023-11-25T15:38:24.639Z,50.872986
2023-11-25T15:39:24.688Z,50.872986
2023-11-25T15:40:24.620Z,50.872986
2023-11-25T15:41:24.623Z,50.872986
2023-11-25T15:42:25.613Z,50.872986
2023-11-25T15:43:24.591Z,50.872986
2023-11-25T15:44:24.618Z,50.872986
2023-11-25T15:45:24.600Z,50.872986
2023-11-25T15:46:25.578Z,50.872986
2023-11-25T15:47:24.565Z,50.872986
2023-11-25T15:48:24.576Z,50.872986
2023-11-25T15:49:24.560Z,50.872986
2023-11-25T15:50:24.529Z,50.872986
2023-11-25T15:51:24.525Z,50.872986
2023-11-25T15:52:24.509Z,50.872986
2023-11-25T15:53:24.584Z,50.872986
2023-11-25T15:54:24.528Z,50.872986
2023-11-25T15:55:24.523Z,50.872986
2023-11-25T15:56:24.514Z,50.872986
2023-11-25T15:57:24.501Z,50.872986
2023-11-25T15:58:24.472Z,50.872986
2023-11-25T15:59:24.457Z,50.872986
2023-11-25T16:00:24.426Z,50.872986
2023-11-25T16:01:24.459Z,50.872986
2023-11-25T16:02:24.473Z,50.872986
2023-11-25T16:03:24.418Z,50.872986
2023-11-25T16:04:24.428Z,50.872986
2023-11-25T16:05:24.477Z,50.872986
2023-11-25T16:06:24.365Z,50.872986
2023-11-25T16:07:24.406Z,50.872986
2023-11-25T16:08:24.368Z,50.872986
2023-11-25T16:09:24.354Z,50.872986
2023-11-25T16:10:24.350Z,50.872986
2023-11-25T16:11:24.342Z,50.872986
2023-11-25T16:12:26.000Z,50.872986
2023-11-25T16:13:24.294Z,50.872986
2023-11-25T16:14:24.303Z,50.872986
2023-11-25T16:15:24.316Z,50.872986
2023-11-25T16:16:24.355Z,50.872986
2023-11-25T16:17:24.317Z,50.872986
2023-11-25T16:18:26.214Z,50.872986
2023-11-25T16:19:25.283Z,50.872986
2023-11-25T16:20:24.278Z,50.872986
2023-11-25T16:21:24.253Z,50.872986
2023-11-25T16:22:24.224Z,50.872986
2023-11-25T16:23:24.212Z,50.872986
2023-11-25T16:24:24.202Z,50.872986
2023-11-25T16:25:24.202Z,50.872986
2023-11-25T16:26:24.209Z,50.872986
2023-11-25T16:27:25.221Z,50.872986
2023-11-25T16:28:24.164Z,50.872986
2023-11-25T16:29:24.182Z,50.872986
2023-11-25T16:30:24.135Z,50.872986
2023-11-25T16:31:24.181Z,50.872986
2023-11-25T16:32:24.231Z,50.872986
2023-11-25T16:33:24.197Z,50.872986
2023-11-25T16:34:24.118Z,50.872986
2023-11-25T16:35:24.121Z,50.872986
2023-11-25T16:36:24.076Z,50.872986
2023-11-25T16:37:24.075Z,50.872986
2023-11-25T16:38:24.113Z,50.872986
2023-11-25T16:39:24.164Z,50.872986
2023-11-25T16:40:24.102Z,50.872986
2023-11-25T16:41:24.031Z,50.872986
2023-11-25T16:42:24.020Z,50.872986
2023-11-25T16:43:24.005Z,50.872986
2023-11-25T16:44:24.068Z,50.872986
2023-11-25T16:45:24.044Z,50.872986
2023-11-25T16:46:24.045Z,50.872986
2023-11-25T16:47:24.051Z,50.872986
2023-11-25T16:48:32.304Z,50.872986
2023-11-25T16:49:31.913Z,50.872986
2023-11-25T16:50:25.076Z,50.872986
2023-11-25T16:51:23.936Z,50.872986
2023-11-25T16:52:23.912Z,50.872986
2023-11-25T16:53:23.906Z,50.872986
2023-11-25T16:54:23.949Z,50.872986
2023-11-25T16:55:23.900Z,50.872986
2023-11-25T16:56:23.936Z,50.872986
2023-11-25T16:57:23.901Z,50.872986
2023-11-25T16:58:23.918Z,50.872986
2023-11-25T16:59:23.892Z,50.872986
2023-11-25T17:00:23.839Z,50.872986
2023-11-25T17:01:23.857Z,50.872986
2023-11-25T17:02:23.987Z,50.872986
2023-11-25T17:03:24.029Z,50.872986
2023-11-25T17:04:23.948Z,50.872986
2023-11-25T17:05:23.889Z,50.872986
2023-11-25T17:06:23.796Z,50.872986
2023-11-25T17:07:23.794Z,50.872986
2023-11-25T17:08:23.782Z,50.872986
2023-11-25T17:09:23.791Z,50.872986
2023-11-25T17:10:23.742Z,50.872986
2023-11-25T17:11:25.867Z,50.872986
2023-11-25T17:12:24.700Z,50.872986
2023-11-25T17:13:23.710Z,50.872986
2023-11-25T17:14:23.703Z,50.872986
2023-11-25T17:15:23.731Z,50.872986
2023-11-25T17:16:23.713Z,50.872986
2023-11-25T17:17:23.729Z,50.872986
2023-11-25T17:18:23.676Z,50.872986
2023-11-25T17:19:23.658Z,50.872986
2023-11-25T17:20:23.650Z,50.872986
2023-11-25T17:21:23.644Z,50.872986
2023-11-25T17:22:24.635Z,50.872986
2023-11-25T17:23:23.610Z,50.872986
2023-11-25T17:24:23.631Z,50.872986
2023-11-25T17:25:23.613Z,50.872986
2023-11-25T17:26:23.591Z,50.872986
2023-11-25T17:27:23.582Z,50.872986
2023-11-25T17:28:23.597Z,50.872986
2023-11-25T17:29:23.599Z,50.872986
2023-11-25T17:30:23.561Z,50.872986
2023-11-25T17:31:23.667Z,50.872986
2023-11-25T17:32:23.541Z,50.872986
2023-11-25T17:33:23.532Z,50.872986
2023-11-25T17:34:23.597Z,50.872986
2023-11-25T17:35:23.503Z,50.872986
2023-11-25T17:36:23.511Z,50.872986
2023-11-25T17:37:23.509Z,50.872986
2023-11-25T17:38:23.493Z,50.872986
2023-11-25T17:39:23.439Z,50.872986
2023-11-25T17:40:23.422Z,50.872986
2023-11-25T17:41:23.451Z,50.872986
2023-11-25T17:42:23.457Z,50.872986
2023-11-25T17:43:23.517Z,50.872986
2023-11-25T17:44:23.481Z,50.872986
2023-11-25T17:45:23.457Z,50.872986
2023-11-25T17:46:23.420Z,50.872986
2023-11-25T17:47:23.377Z,50.872986
2023-11-25T17:48:23.364Z,50.872986
2023-11-25T17:49:23.348Z,50.872986
2023-11-25T17:50:23.338Z,50.872986
2023-11-25T17:51:23.336Z,50.872986
2023-11-25T17:52:23.323Z,50.872986
2023-11-25T17:53:23.371Z,50.872986
2023-11-25T17:54:23.292Z,50.872986
2023-11-25T17:55:23.322Z,50.872986
2023-11-25T17:56:23.328Z,50.872986
2023-11-25T17:57:23.271Z,50.872986
2023-11-25T17:58:23.336Z,50.872986
2023-11-25T17:59:23.280Z,50.872986
2023-11-25T18:00:23.284Z,50.872986
2023-11-25T18:01:23.320Z,50.872986
2023-11-25T18:02:23.337Z,50.872986
2023-11-25T18:03:23.269Z,50.872986
2023-11-25T18:04:23.278Z,50.872986
2023-11-25T18:05:23.208Z,50.872986
2023-11-25T18:06:23.181Z,50.872986
2023-11-25T18:07:23.176Z,50.872986
2023-11-25T18:08:23.193Z,50.872986
2023-11-25T18:09:23.191Z,50.872986
2023-11-25T18:10:23.145Z,50.872986
2023-11-25T18:11:23.141Z,50.872986
2023-11-25T18:12:24.139Z,50.872986
2023-11-25T18:13:23.173Z,50.872986
2023-11-25T18:14:23.216Z,50.872986
2023-11-25T18:15:23.106Z,50.872986
2023-11-25T18:16:23.081Z,50.872986
2023-11-25T18:17:23.189Z,50.872986
2023-11-25T18:18:23.144Z,50.872986
2023-11-25T18:19:23.050Z,50.872986
2023-11-25T18:20:23.051Z,50.872986
2023-11-25T18:21:23.035Z,50.872986
2023-11-25T18:22:23.003Z,50.872986
2023-11-25T18:23:23.023Z,50.872986
2023-11-25T18:24:23.008Z,50.872986
2023-11-25T18:25:23.222Z,50.872986
2023-11-25T18:26:23.022Z,50.872986
2023-11-25T18:27:23.056Z,50.872986
2023-11-25T18:28:23.039Z,50.872986
2023-11-25T18:29:23.583Z,50.872986
2023-11-25T18:30:23.064Z,50.872986
2023-11-25T18:31:22.941Z,50.872986
2023-11-25T18:32:22.915Z,50.872986
2023-11-25T18:33:22.989Z,50.872986
2023-11-25T18:34:22.957Z,50.872986
2023-11-25T18:35:22.933Z,50.872986
2023-11-25T18:36:22.893Z,50.872986
2023-11-25T18:37:22.936Z,50.872986
2023-11-25T18:38:22.882Z,50.872986
2023-11-25T18:39:23.736Z,50.872986
2023-11-25T18:40:22.858Z,50.872986
2023-11-25T18:41:22.825Z,50.872986
2023-11-25T18:42:22.856Z,50.872986
2023-11-25T18:43:22.860Z,50.872986
2023-11-25T18:44:22.814Z,50.872986
2023-11-25T18:45:22.789Z,50.872986
2023-11-25T18:46:22.824Z,50.872986
2023-11-25T18:47:22.831Z,50.872986
2023-11-25T18:48:22.796Z,50.872986
2023-11-25T18:49:22.760Z,50.872986
2023-11-25T18:50:22.751Z,50.872986
2023-11-25T18:51:22.735Z,50.872986
2023-11-25T18:52:22.726Z,50.872986
2023-11-25T18:53:22.703Z,50.872986
2023-11-25T18:54:22.703Z,50.872986
2023-11-25T18:55:22.679Z,50.872986
2023-11-25T18:56:22.688Z,50.872986
2023-11-25T18:57:22.684Z,50.872986
2023-11-25T18:58:22.643Z,50.872986
2023-11-25T18:59:22.641Z,50.872986
2023-11-25T19:00:23.677Z,50.872986
2023-11-25T19:01:22.674Z,50.872986
2023-11-25T19:02:22.692Z,50.872986
2023-11-25T19:03:22.614Z,50.872986
2023-11-25T19:04:23.975Z,50.872986
2023-11-25T19:05:22.596Z,50.872986
2023-11-25T19:06:22.566Z,50.872986
2023-11-25T19:07:22.536Z,50.872986
2023-11-25T19:08:22.570Z,50.872986
2023-11-25T19:09:22.556Z,50.872986
2023-11-25T19:10:22.575Z,50.872986
2023-11-25T19:11:22.535Z,50.872986
2023-11-25T19:12:22.525Z,50.872986
2023-11-25T19:13:22.581Z,50.872986
2023-11-25T19:14:22.562Z,50.872986
2023-11-25T19:15:22.502Z,50.872986
2023-11-25T19:16:22.547Z,50.872986
2023-11-25T19:17:22.575Z,50.872986
2023-11-25T19:18:22.554Z,50.872986
2023-11-25T19:19:22.494Z,50.872986
2023-11-25T19:20:22.435Z,50.872986
2023-11-25T19:21:22.477Z,50.872986
2023-11-25T19:22:22.407Z,50.872986
2023-11-25T19:23:22.470Z,50.872986
2023-11-25T19:24:22.455Z,50.872986
2023-11-25T19:25:22.493Z,50.872986
2023-11-25T19:26:22.425Z,50.872986
2023-11-25T19:27:22.428Z,50.872986
2023-11-25T19:28:25.214Z,50.872986
2023-11-25T19:29:23.452Z,50.872986
2023-11-25T19:30:22.315Z,50.872986
2023-11-25T19:31:22.364Z,50.872986
2023-11-25T19:32:22.460Z,50.872986
2023-11-25T19:33:22.332Z,50.872986
2023-11-25T19:34:22.319Z,50.872986
2023-11-25T19:35:22.326Z,50.872986
2023-11-25T19:36:22.347Z,50.872986
2023-11-25T19:37:22.301Z,50.872986
2023-11-25T19:38:22.342Z,50.872986
2023-11-25T19:39:22.357Z,50.872986
2023-11-25T19:40:22.289Z,50.872986
2023-11-25T19:41:22.296Z,50.872986
2023-11-25T19:42:22.269Z,50.872986
2023-11-25T19:43:22.215Z,50.872986
2023-11-25T19:44:22.214Z,50.872986
2023-11-25T19:45:22.148Z,50.872986
2023-11-25T19:46:22.236Z,50.872986
2023-11-25T19:47:22.279Z,50.872986
2023-11-25T19:48:22.232Z,50.872986
2023-11-25T19:49:22.216Z,50.872986
2023-11-25T19:50:22.145Z,50.872986
2023-11-25T19:51:22.121Z,50.872986
2023-11-25T19:52:22.160Z,50.872986
2023-11-25T19:53:22.176Z,50.872986
2023-11-25T19:54:23.122Z,50.872986